sensor_id;sensor_type;location;lat;lon;timestamp;P1;durP1;ratioP1;P2;durP2;ratioP2
3875;SDS011;1953;51.222;6.624;2023-04-08T00:03:40;49.20;;;24.23;;
3875;SDS011;1953;51.222;6.624;2023-04-08T00:10:41;48.90;;;25.20;;
3875;SDS011;1953;51.222;6.624;2023-04-08T00:15:23;52.40;;;25.97;;
3875;SDS011;1953;51.222;6.624;2023-04-08T00:20:06;55.10;;;27.13;;
3875;SDS011;1953;51.222;6.624;2023-04-08T00:24:49;55.50;;;26.13;;
3875;SDS011;1953;51.222;6.624;2023-04-08T00:29:33;56.40;;;27.43;;
3875;SDS011;1953;51.222;6.624;2023-04-08T00:34:16;57.27;;;26.77;;
3875;SDS011;1953;51.222;6.624;2023-04-08T00:38:58;53.27;;;27.73;;
3875;SDS011;1953;51.222;6.624;2023-04-08T00:43:41;53.80;;;25.57;;
3875;SDS011;1953;51.222;6.624;2023-04-08T00:48:25;60.43;;;26.27;;
3875;SDS011;1953;51.222;6.624;2023-04-08T00:53:08;52.57;;;25.40;;
3875;SDS011;1953;51.222;6.624;2023-04-08T00:57:50;53.43;;;25.10;;
3875;SDS011;1953;51.222;6.624;2023-04-08T01:02:35;49.70;;;24.30;;
3875;SDS011;1953;51.222;6.624;2023-04-08T01:07:25;52.67;;;25.57;;
3875;SDS011;1953;51.222;6.624;2023-04-08T01:12:09;50.37;;;25.77;;
3875;SDS011;1953;51.222;6.624;2023-04-08T01:16:58;60.20;;;27.00;;
3875;SDS011;1953;51.222;6.624;2023-04-08T01:21:43;53.23;;;25.70;;
3875;SDS011;1953;51.222;6.624;2023-04-08T01:26:27;55.97;;;25.20;;
3875;SDS011;1953;51.222;6.624;2023-04-08T01:31:10;49.37;;;24.07;;
3875;SDS011;1953;51.222;6.624;2023-04-08T01:35:53;55.07;;;25.47;;
3875;SDS011;1953;51.222;6.624;2023-04-08T01:40:37;55.13;;;25.17;;
3875;SDS011;1953;51.222;6.624;2023-04-08T01:45:23;54.47;;;26.90;;
3875;SDS011;1953;51.222;6.624;2023-04-08T01:50:07;54.17;;;24.83;;
3875;SDS011;1953;51.222;6.624;2023-04-08T01:54:50;59.10;;;26.20;;
3875;SDS011;1953;51.222;6.624;2023-04-08T01:59:34;60.33;;;27.77;;
3875;SDS011;1953;51.222;6.624;2023-04-08T02:04:20;54.70;;;27.67;;
3875;SDS011;1953;51.222;6.624;2023-04-08T02:09:03;64.80;;;28.33;;
3875;SDS011;1953;51.222;6.624;2023-04-08T02:13:46;57.47;;;28.00;;
3875;SDS011;1953;51.222;6.624;2023-04-08T02:18:28;60.80;;;26.27;;
3875;SDS011;1953;51.222;6.624;2023-04-08T02:23:14;60.17;;;30.10;;
3875;SDS011;1953;51.222;6.624;2023-04-08T02:28:01;73.17;;;30.23;;
3875;SDS011;1953;51.222;6.624;2023-04-08T02:32:45;64.17;;;29.30;;
3875;SDS011;1953;51.222;6.624;2023-04-08T02:37:28;63.30;;;27.73;;
3875;SDS011;1953;51.222;6.624;2023-04-08T02:42:12;65.80;;;29.87;;
3875;SDS011;1953;51.222;6.624;2023-04-08T02:46:55;58.27;;;29.07;;
3875;SDS011;1953;51.222;6.624;2023-04-08T02:51:38;72.60;;;29.40;;
3875;SDS011;1953;51.222;6.624;2023-04-08T02:56:20;68.97;;;30.10;;
3875;SDS011;1953;51.222;6.624;2023-04-08T03:01:04;70.43;;;30.77;;
3875;SDS011;1953;51.222;6.624;2023-04-08T03:05:48;66.13;;;28.57;;
3875;SDS011;1953;51.222;6.624;2023-04-08T03:10:31;74.70;;;32.23;;
3875;SDS011;1953;51.222;6.624;2023-04-08T03:15:13;79.83;;;31.67;;
3875;SDS011;1953;51.222;6.624;2023-04-08T03:19:57;85.67;;;33.33;;
3875;SDS011;1953;51.222;6.624;2023-04-08T03:24:39;89.97;;;34.43;;
3875;SDS011;1953;51.222;6.624;2023-04-08T03:29:22;97.33;;;33.37;;
3875;SDS011;1953;51.222;6.624;2023-04-08T03:34:05;83.33;;;34.10;;
3875;SDS011;1953;51.222;6.624;2023-04-08T03:38:48;94.97;;;34.60;;
3875;SDS011;1953;51.222;6.624;2023-04-08T03:43:31;83.13;;;34.30;;
3875;SDS011;1953;51.222;6.624;2023-04-08T03:48:14;86.90;;;33.60;;
3875;SDS011;1953;51.222;6.624;2023-04-08T03:52:56;83.10;;;35.67;;
3875;SDS011;1953;51.222;6.624;2023-04-08T03:57:40;97.13;;;36.53;;
3875;SDS011;1953;51.222;6.624;2023-04-08T04:02:22;88.27;;;35.60;;
3875;SDS011;1953;51.222;6.624;2023-04-08T04:07:05;101.43;;;36.20;;
3875;SDS011;1953;51.222;6.624;2023-04-08T04:11:48;91.73;;;35.60;;
3875;SDS011;1953;51.222;6.624;2023-04-08T04:16:32;87.93;;;36.90;;
3875;SDS011;1953;51.222;6.624;2023-04-08T04:21:14;93.47;;;36.73;;
3875;SDS011;1953;51.222;6.624;2023-04-08T04:25:57;97.67;;;37.23;;
3875;SDS011;1953;51.222;6.624;2023-04-08T04:30:39;84.50;;;36.37;;
3875;SDS011;1953;51.222;6.624;2023-04-08T04:35:23;89.10;;;36.03;;
3875;SDS011;1953;51.222;6.624;2023-04-08T04:40:06;89.50;;;36.30;;
3875;SDS011;1953;51.222;6.624;2023-04-08T04:44:49;97.40;;;38.33;;
3875;SDS011;1953;51.222;6.624;2023-04-08T04:49:31;95.33;;;38.03;;
3875;SDS011;1953;51.222;6.624;2023-04-08T04:54:15;94.47;;;36.40;;
3875;SDS011;1953;51.222;6.624;2023-04-08T04:58:58;98.50;;;38.40;;
3875;SDS011;1953;51.222;6.624;2023-04-08T05:03:40;94.47;;;38.93;;
3875;SDS011;1953;51.222;6.624;2023-04-08T05:08:23;103.80;;;38.53;;
3875;SDS011;1953;51.222;6.624;2023-04-08T05:13:07;92.40;;;38.00;;
3875;SDS011;1953;51.222;6.624;2023-04-08T05:17:49;106.47;;;41.73;;
3875;SDS011;1953;51.222;6.624;2023-04-08T05:22:32;103.67;;;41.07;;
3875;SDS011;1953;51.222;6.624;2023-04-08T05:27:15;115.27;;;40.37;;
3875;SDS011;1953;51.222;6.624;2023-04-08T05:31:59;101.20;;;40.13;;
3875;SDS011;1953;51.222;6.624;2023-04-08T05:36:41;103.53;;;42.37;;
3875;SDS011;1953;51.222;6.624;2023-04-08T05:41:24;121.67;;;43.93;;
3875;SDS011;1953;51.222;6.624;2023-04-08T05:46:06;112.17;;;43.67;;
3875;SDS011;1953;51.222;6.624;2023-04-08T05:50:50;106.60;;;43.77;;
3875;SDS011;1953;51.222;6.624;2023-04-08T05:55:33;106.60;;;43.83;;
3875;SDS011;1953;51.222;6.624;2023-04-08T06:00:16;102.43;;;41.33;;
3875;SDS011;1953;51.222;6.624;2023-04-08T06:04:59;104.17;;;43.67;;
3875;SDS011;1953;51.222;6.624;2023-04-08T06:09:44;96.17;;;42.80;;
3875;SDS011;1953;51.222;6.624;2023-04-08T06:14:27;91.33;;;42.20;;
3875;SDS011;1953;51.222;6.624;2023-04-08T06:19:09;99.23;;;42.67;;
3875;SDS011;1953;51.222;6.624;2023-04-08T06:23:52;99.63;;;43.20;;
3875;SDS011;1953;51.222;6.624;2023-04-08T06:28:36;95.73;;;43.00;;
3875;SDS011;1953;51.222;6.624;2023-04-08T06:33:18;88.03;;;41.50;;
3875;SDS011;1953;51.222;6.624;2023-04-08T06:38:01;98.73;;;43.20;;
3875;SDS011;1953;51.222;6.624;2023-04-08T06:42:44;91.70;;;41.03;;
3875;SDS011;1953;51.222;6.624;2023-04-08T06:47:27;90.87;;;41.80;;
3875;SDS011;1953;51.222;6.624;2023-04-08T06:52:10;99.57;;;41.77;;
3875;SDS011;1953;51.222;6.624;2023-04-08T06:56:52;95.00;;;41.70;;
3875;SDS011;1953;51.222;6.624;2023-04-08T07:01:35;106.60;;;43.30;;
3875;SDS011;1953;51.222;6.624;2023-04-08T07:06:19;100.60;;;41.80;;
3875;SDS011;1953;51.222;6.624;2023-04-08T07:11:01;83.90;;;40.53;;
3875;SDS011;1953;51.222;6.624;2023-04-08T07:15:44;86.60;;;39.77;;
3875;SDS011;1953;51.222;6.624;2023-04-08T07:20:27;77.53;;;39.40;;
3875;SDS011;1953;51.222;6.624;2023-04-08T07:25:11;87.80;;;39.60;;
3875;SDS011;1953;51.222;6.624;2023-04-08T07:29:53;81.63;;;38.40;;
3875;SDS011;1953;51.222;6.624;2023-04-08T07:34:36;88.33;;;39.57;;
3875;SDS011;1953;51.222;6.624;2023-04-08T07:39:18;83.50;;;40.10;;
3875;SDS011;1953;51.222;6.624;2023-04-08T07:44:02;87.57;;;39.53;;
3875;SDS011;1953;51.222;6.624;2023-04-08T07:48:45;74.27;;;37.60;;
3875;SDS011;1953;51.222;6.624;2023-04-08T07:53:27;71.00;;;36.00;;
3875;SDS011;1953;51.222;6.624;2023-04-08T07:58:10;77.83;;;38.73;;
3875;SDS011;1953;51.222;6.624;2023-04-08T08:02:54;74.43;;;38.17;;
3875;SDS011;1953;51.222;6.624;2023-04-08T08:07:37;76.43;;;37.90;;
3875;SDS011;1953;51.222;6.624;2023-04-08T08:12:19;64.83;;;34.50;;
3875;SDS011;1953;51.222;6.624;2023-04-08T08:17:02;64.70;;;35.67;;
3875;SDS011;1953;51.222;6.624;2023-04-08T08:21:46;65.10;;;35.27;;
3875;SDS011;1953;51.222;6.624;2023-04-08T08:26:28;61.80;;;34.10;;
3875;SDS011;1953;51.222;6.624;2023-04-08T08:31:11;54.63;;;32.27;;
3875;SDS011;1953;51.222;6.624;2023-04-08T08:35:54;52.70;;;31.03;;
3875;SDS011;1953;51.222;6.624;2023-04-08T08:40:39;54.27;;;29.07;;
3875;SDS011;1953;51.222;6.624;2023-04-08T08:45:21;45.73;;;27.87;;
3875;SDS011;1953;51.222;6.624;2023-04-08T08:50:04;42.70;;;25.33;;
3875;SDS011;1953;51.222;6.624;2023-04-08T08:54:47;42.73;;;26.37;;
3875;SDS011;1953;51.222;6.624;2023-04-08T08:59:38;41.17;;;26.63;;
3875;SDS011;1953;51.222;6.624;2023-04-08T09:04:21;44.50;;;27.43;;
3875;SDS011;1953;51.222;6.624;2023-04-08T09:09:03;38.93;;;26.30;;
3875;SDS011;1953;51.222;6.624;2023-04-08T09:13:49;42.53;;;27.63;;
3875;SDS011;1953;51.222;6.624;2023-04-08T09:18:33;42.93;;;27.57;;
3875;SDS011;1953;51.222;6.624;2023-04-08T09:23:17;43.57;;;29.40;;
3875;SDS011;1953;51.222;6.624;2023-04-08T09:28:00;47.63;;;31.13;;
3875;SDS011;1953;51.222;6.624;2023-04-08T09:32:46;49.37;;;31.50;;
3875;SDS011;1953;51.222;6.624;2023-04-08T09:37:30;47.70;;;30.97;;
3875;SDS011;1953;51.222;6.624;2023-04-08T09:42:13;45.57;;;30.30;;
3875;SDS011;1953;51.222;6.624;2023-04-08T09:46:59;45.77;;;29.93;;
3875;SDS011;1953;51.222;6.624;2023-04-08T09:51:48;46.37;;;29.97;;
3875;SDS011;1953;51.222;6.624;2023-04-08T09:56:40;45.93;;;30.07;;
3875;SDS011;1953;51.222;6.624;2023-04-08T10:01:27;46.23;;;30.63;;
3875;SDS011;1953;51.222;6.624;2023-04-08T10:06:16;42.40;;;28.23;;
3875;SDS011;1953;51.222;6.624;2023-04-08T10:11:01;46.97;;;32.43;;
3875;SDS011;1953;51.222;6.624;2023-04-08T10:15:45;46.07;;;31.03;;
3875;SDS011;1953;51.222;6.624;2023-04-08T10:20:39;45.47;;;31.73;;
3875;SDS011;1953;51.222;6.624;2023-04-08T10:25:30;49.10;;;31.73;;
3875;SDS011;1953;51.222;6.624;2023-04-08T10:35:28;58.00;;;37.10;;
3875;SDS011;1953;51.222;6.624;2023-04-08T10:40:17;45.63;;;32.67;;
3875;SDS011;1953;51.222;6.624;2023-04-08T10:45:00;58.20;;;37.50;;
3875;SDS011;1953;51.222;6.624;2023-04-08T10:49:43;56.47;;;35.70;;
3875;SDS011;1953;51.222;6.624;2023-04-08T10:54:28;55.27;;;35.30;;
3875;SDS011;1953;51.222;6.624;2023-04-08T10:59:12;60.77;;;36.37;;
3875;SDS011;1953;51.222;6.624;2023-04-08T11:03:57;62.33;;;37.40;;
3875;SDS011;1953;51.222;6.624;2023-04-08T11:08:40;56.87;;;36.87;;
3875;SDS011;1953;51.222;6.624;2023-04-08T11:13:25;60.27;;;36.87;;
3875;SDS011;1953;51.222;6.624;2023-04-08T11:18:08;60.33;;;39.60;;
3875;SDS011;1953;51.222;6.624;2023-04-08T11:22:51;71.23;;;43.40;;
3875;SDS011;1953;51.222;6.624;2023-04-08T11:27:34;67.00;;;42.40;;
3875;SDS011;1953;51.222;6.624;2023-04-08T11:32:19;75.87;;;45.63;;
3875;SDS011;1953;51.222;6.624;2023-04-08T11:37:01;70.03;;;44.97;;
3875;SDS011;1953;51.222;6.624;2023-04-08T11:41:44;70.57;;;44.03;;
3875;SDS011;1953;51.222;6.624;2023-04-08T11:46:27;60.70;;;39.73;;
3875;SDS011;1953;51.222;6.624;2023-04-08T11:51:10;65.43;;;40.23;;
3875;SDS011;1953;51.222;6.624;2023-04-08T11:55:53;59.73;;;40.20;;
3875;SDS011;1953;51.222;6.624;2023-04-08T12:00:36;60.10;;;39.43;;
3875;SDS011;1953;51.222;6.624;2023-04-08T12:05:19;62.47;;;37.80;;
3875;SDS011;1953;51.222;6.624;2023-04-08T12:11:42;53.77;;;36.57;;
3875;SDS011;1953;51.222;6.624;2023-04-08T12:16:24;54.00;;;34.67;;
3875;SDS011;1953;51.222;6.624;2023-04-08T12:21:07;60.87;;;36.50;;
3875;SDS011;1953;51.222;6.624;2023-04-08T12:25:49;55.60;;;37.37;;
3875;SDS011;1953;51.222;6.624;2023-04-08T12:30:33;62.13;;;37.00;;
3875;SDS011;1953;51.222;6.624;2023-04-08T12:35:16;51.87;;;34.20;;
3875;SDS011;1953;51.222;6.624;2023-04-08T12:39:58;59.10;;;35.50;;
3875;SDS011;1953;51.222;6.624;2023-04-08T12:44:41;52.90;;;34.23;;
3875;SDS011;1953;51.222;6.624;2023-04-08T12:49:25;49.03;;;31.60;;
3875;SDS011;1953;51.222;6.624;2023-04-08T12:54:08;40.97;;;26.97;;
3875;SDS011;1953;51.222;6.624;2023-04-08T12:58:50;41.30;;;27.73;;
3875;SDS011;1953;51.222;6.624;2023-04-08T13:03:33;37.60;;;27.70;;
3875;SDS011;1953;51.222;6.624;2023-04-08T13:08:17;42.93;;;26.93;;
3875;SDS011;1953;51.222;6.624;2023-04-08T13:12:59;32.20;;;23.43;;
3875;SDS011;1953;51.222;6.624;2023-04-08T13:17:42;28.57;;;20.73;;
3875;SDS011;1953;51.222;6.624;2023-04-08T13:22:24;30.80;;;21.80;;
3875;SDS011;1953;51.222;6.624;2023-04-08T13:27:08;22.65;;;18.70;;
3875;SDS011;1953;51.222;6.624;2023-04-08T13:31:51;27.67;;;18.00;;
3875;SDS011;1953;51.222;6.624;2023-04-08T13:36:33;27.70;;;16.10;;
3875;SDS011;1953;51.222;6.624;2023-04-08T13:41:16;22.23;;;14.93;;
3875;SDS011;1953;51.222;6.624;2023-04-08T13:46:00;26.80;;;16.73;;
3875;SDS011;1953;51.222;6.624;2023-04-08T13:50:43;24.20;;;14.40;;
3875;SDS011;1953;51.222;6.624;2023-04-08T13:55:26;28.47;;;14.63;;
3875;SDS011;1953;51.222;6.624;2023-04-08T14:00:09;18.17;;;13.47;;
3875;SDS011;1953;51.222;6.624;2023-04-08T14:04:54;20.53;;;13.13;;
3875;SDS011;1953;51.222;6.624;2023-04-08T14:09:37;18.60;;;13.00;;
3875;SDS011;1953;51.222;6.624;2023-04-08T14:14:20;24.37;;;14.77;;
3875;SDS011;1953;51.222;6.624;2023-04-08T14:19:02;21.53;;;13.90;;
3875;SDS011;1953;51.222;6.624;2023-04-08T14:23:47;25.13;;;14.80;;
3875;SDS011;1953;51.222;6.624;2023-04-08T14:28:29;18.50;;;14.63;;
3875;SDS011;1953;51.222;6.624;2023-04-08T14:33:12;22.30;;;14.67;;
3875;SDS011;1953;51.222;6.624;2023-04-08T14:37:55;17.57;;;14.20;;
3875;SDS011;1953;51.222;6.624;2023-04-08T14:42:39;19.80;;;14.20;;
3875;SDS011;1953;51.222;6.624;2023-04-08T14:47:21;20.90;;;14.93;;
3875;SDS011;1953;51.222;6.624;2023-04-08T14:52:04;22.20;;;15.47;;
3875;SDS011;1953;51.222;6.624;2023-04-08T14:56:46;23.37;;;15.93;;
3875;SDS011;1953;51.222;6.624;2023-04-08T15:01:30;25.97;;;18.30;;
3875;SDS011;1953;51.222;6.624;2023-04-08T15:06:13;24.67;;;17.00;;
3875;SDS011;1953;51.222;6.624;2023-04-08T15:10:57;23.00;;;16.17;;
3875;SDS011;1953;51.222;6.624;2023-04-08T15:15:39;22.17;;;16.80;;
3875;SDS011;1953;51.222;6.624;2023-04-08T15:20:23;23.13;;;17.33;;
3875;SDS011;1953;51.222;6.624;2023-04-08T15:25:06;33.17;;;18.43;;
3875;SDS011;1953;51.222;6.624;2023-04-08T15:29:50;28.97;;;19.87;;
3875;SDS011;1953;51.222;6.624;2023-04-08T15:34:32;29.30;;;20.90;;
3875;SDS011;1953;51.222;6.624;2023-04-08T15:39:16;27.60;;;20.43;;
3875;SDS011;1953;51.222;6.624;2023-04-08T15:43:59;31.93;;;22.60;;
3875;SDS011;1953;51.222;6.624;2023-04-08T15:48:41;32.73;;;24.20;;
3875;SDS011;1953;51.222;6.624;2023-04-08T15:53:24;30.73;;;24.50;;
3875;SDS011;1953;51.222;6.624;2023-04-08T15:58:08;36.50;;;26.70;;
3875;SDS011;1953;51.222;6.624;2023-04-08T16:02:50;44.63;;;31.00;;
3875;SDS011;1953;51.222;6.624;2023-04-08T16:07:33;40.47;;;29.60;;
3875;SDS011;1953;51.222;6.624;2023-04-08T16:12:15;37.67;;;29.90;;
3875;SDS011;1953;51.222;6.624;2023-04-08T16:17:00;40.30;;;30.07;;
3875;SDS011;1953;51.222;6.624;2023-04-08T16:21:43;38.50;;;29.60;;
3875;SDS011;1953;51.222;6.624;2023-04-08T16:26:26;38.83;;;29.87;;
3875;SDS011;1953;51.222;6.624;2023-04-08T16:31:08;36.00;;;31.77;;
3875;SDS011;1953;51.222;6.624;2023-04-08T16:35:52;37.80;;;31.10;;
3875;SDS011;1953;51.222;6.624;2023-04-08T16:40:35;37.73;;;28.77;;
3875;SDS011;1953;51.222;6.624;2023-04-08T16:45:18;37.33;;;29.63;;
3875;SDS011;1953;51.222;6.624;2023-04-08T16:50:01;38.83;;;28.27;;
3875;SDS011;1953;51.222;6.624;2023-04-08T16:54:46;38.43;;;27.97;;
3875;SDS011;1953;51.222;6.624;2023-04-08T16:59:29;34.93;;;26.83;;
3875;SDS011;1953;51.222;6.624;2023-04-08T17:04:11;34.70;;;26.00;;
3875;SDS011;1953;51.222;6.624;2023-04-08T17:08:53;40.37;;;28.50;;
3875;SDS011;1953;51.222;6.624;2023-04-08T17:13:38;34.23;;;26.00;;
3875;SDS011;1953;51.222;6.624;2023-04-08T17:18:21;36.97;;;27.67;;
3875;SDS011;1953;51.222;6.624;2023-04-08T17:23:03;35.30;;;25.77;;
3875;SDS011;1953;51.222;6.624;2023-04-08T17:27:46;34.00;;;25.07;;
3875;SDS011;1953;51.222;6.624;2023-04-08T17:32:29;32.67;;;24.00;;
3875;SDS011;1953;51.222;6.624;2023-04-08T17:37:12;29.03;;;21.80;;
3875;SDS011;1953;51.222;6.624;2023-04-08T17:41:55;29.13;;;21.50;;
3875;SDS011;1953;51.222;6.624;2023-04-08T17:46:37;32.73;;;23.67;;
3875;SDS011;1953;51.222;6.624;2023-04-08T17:51:22;33.60;;;23.40;;
3875;SDS011;1953;51.222;6.624;2023-04-08T17:56:04;32.17;;;23.93;;
3875;SDS011;1953;51.222;6.624;2023-04-08T18:00:47;35.07;;;25.13;;
3875;SDS011;1953;51.222;6.624;2023-04-08T18:05:30;39.53;;;28.67;;
3875;SDS011;1953;51.222;6.624;2023-04-08T18:10:14;40.47;;;29.10;;
3875;SDS011;1953;51.222;6.624;2023-04-08T18:14:57;40.90;;;28.13;;
3875;SDS011;1953;51.222;6.624;2023-04-08T18:19:39;45.50;;;29.00;;
3875;SDS011;1953;51.222;6.624;2023-04-08T18:24:22;45.60;;;32.00;;
3875;SDS011;1953;51.222;6.624;2023-04-08T18:29:06;45.00;;;31.27;;
3875;SDS011;1953;51.222;6.624;2023-04-08T18:33:48;45.73;;;31.70;;
3875;SDS011;1953;51.222;6.624;2023-04-08T18:38:31;41.07;;;29.40;;
3875;SDS011;1953;51.222;6.624;2023-04-08T18:43:15;44.50;;;30.60;;
3875;SDS011;1953;51.222;6.624;2023-04-08T18:47:59;48.93;;;33.20;;
3875;SDS011;1953;51.222;6.624;2023-04-08T18:52:41;51.13;;;29.30;;
3875;SDS011;1953;51.222;6.624;2023-04-08T18:57:24;44.10;;;31.80;;
3875;SDS011;1953;51.222;6.624;2023-04-08T19:02:06;41.40;;;28.87;;
3875;SDS011;1953;51.222;6.624;2023-04-08T19:06:50;40.47;;;28.47;;
3875;SDS011;1953;51.222;6.624;2023-04-08T19:11:32;48.97;;;30.20;;
3875;SDS011;1953;51.222;6.624;2023-04-08T19:16:15;38.60;;;27.50;;
3875;SDS011;1953;51.222;6.624;2023-04-08T19:20:59;37.80;;;26.97;;
3875;SDS011;1953;51.222;6.624;2023-04-08T19:25:42;41.70;;;27.17;;
3875;SDS011;1953;51.222;6.624;2023-04-08T19:30:25;38.27;;;27.30;;
3875;SDS011;1953;51.222;6.624;2023-04-08T19:35:10;36.60;;;26.53;;
3875;SDS011;1953;51.222;6.624;2023-04-08T19:39:53;38.97;;;26.80;;
3875;SDS011;1953;51.222;6.624;2023-04-08T19:44:37;36.27;;;26.30;;
3875;SDS011;1953;51.222;6.624;2023-04-08T19:49:20;40.30;;;27.63;;
3875;SDS011;1953;51.222;6.624;2023-04-08T19:54:02;36.60;;;26.37;;
3875;SDS011;1953;51.222;6.624;2023-04-08T19:58:45;41.23;;;26.70;;
3875;SDS011;1953;51.222;6.624;2023-04-08T20:03:30;37.77;;;27.43;;
3875;SDS011;1953;51.222;6.624;2023-04-08T20:08:12;43.87;;;27.90;;
3875;SDS011;1953;51.222;6.624;2023-04-08T20:12:55;38.07;;;27.10;;
3875;SDS011;1953;51.222;6.624;2023-04-08T20:17:38;43.07;;;27.30;;
3875;SDS011;1953;51.222;6.624;2023-04-08T20:22:22;33.60;;;23.27;;
3875;SDS011;1953;51.222;6.624;2023-04-08T20:27:05;36.53;;;24.80;;
3875;SDS011;1953;51.222;6.624;2023-04-08T20:31:47;39.63;;;25.27;;
3875;SDS011;1953;51.222;6.624;2023-04-08T20:36:31;38.10;;;25.30;;
3875;SDS011;1953;51.222;6.624;2023-04-08T20:41:17;38.47;;;26.27;;
3875;SDS011;1953;51.222;6.624;2023-04-08T20:46:01;36.00;;;24.47;;
3875;SDS011;1953;51.222;6.624;2023-04-08T20:50:43;39.77;;;25.57;;
3875;SDS011;1953;51.222;6.624;2023-04-08T20:55:25;40.97;;;27.17;;
3875;SDS011;1953;51.222;6.624;2023-04-08T21:00:10;39.47;;;25.73;;
3875;SDS011;1953;51.222;6.624;2023-04-08T21:04:53;36.60;;;25.70;;
3875;SDS011;1953;51.222;6.624;2023-04-08T21:09:35;36.87;;;25.07;;
3875;SDS011;1953;51.222;6.624;2023-04-08T21:14:18;43.30;;;27.60;;
3875;SDS011;1953;51.222;6.624;2023-04-08T21:19:02;40.23;;;27.37;;
3875;SDS011;1953;51.222;6.624;2023-04-08T21:23:44;43.57;;;29.53;;
3875;SDS011;1953;51.222;6.624;2023-04-08T21:28:27;41.53;;;27.70;;
3875;SDS011;1953;51.222;6.624;2023-04-08T21:33:09;44.20;;;28.33;;
3875;SDS011;1953;51.222;6.624;2023-04-08T21:37:53;44.57;;;29.37;;
3875;SDS011;1953;51.222;6.624;2023-04-08T21:42:36;45.60;;;28.80;;
3875;SDS011;1953;51.222;6.624;2023-04-08T21:47:18;41.07;;;28.10;;
3875;SDS011;1953;51.222;6.624;2023-04-08T21:52:00;44.47;;;30.07;;
3875;SDS011;1953;51.222;6.624;2023-04-08T21:56:45;51.03;;;31.30;;
3875;SDS011;1953;51.222;6.624;2023-04-08T22:01:28;49.00;;;30.67;;
3875;SDS011;1953;51.222;6.624;2023-04-08T22:06:11;47.77;;;30.03;;
3875;SDS011;1953;51.222;6.624;2023-04-08T22:10:53;47.90;;;29.63;;
3875;SDS011;1953;51.222;6.624;2023-04-08T22:15:37;51.20;;;32.60;;
3875;SDS011;1953;51.222;6.624;2023-04-08T22:20:19;52.83;;;32.67;;
3875;SDS011;1953;51.222;6.624;2023-04-08T22:25:02;50.47;;;32.70;;
3875;SDS011;1953;51.222;6.624;2023-04-08T22:29:45;49.20;;;30.50;;
3875;SDS011;1953;51.222;6.624;2023-04-08T22:34:29;54.60;;;33.93;;
3875;SDS011;1953;51.222;6.624;2023-04-08T22:39:11;52.07;;;33.40;;
3875;SDS011;1953;51.222;6.624;2023-04-08T22:43:54;51.30;;;33.40;;
3875;SDS011;1953;51.222;6.624;2023-04-08T22:48:36;50.67;;;33.03;;
3875;SDS011;1953;51.222;6.624;2023-04-08T22:53:20;55.83;;;34.20;;
3875;SDS011;1953;51.222;6.624;2023-04-08T22:58:02;51.60;;;31.80;;
3875;SDS011;1953;51.222;6.624;2023-04-08T23:02:45;47.60;;;30.20;;
3875;SDS011;1953;51.222;6.624;2023-04-08T23:07:27;49.67;;;31.70;;
3875;SDS011;1953;51.222;6.624;2023-04-08T23:12:11;53.47;;;31.17;;
3875;SDS011;1953;51.222;6.624;2023-04-08T23:16:53;51.13;;;31.23;;
3875;SDS011;1953;51.222;6.624;2023-04-08T23:21:36;52.63;;;32.10;;
3875;SDS011;1953;51.222;6.624;2023-04-08T23:26:18;54.13;;;33.00;;
3875;SDS011;1953;51.222;6.624;2023-04-08T23:31:03;51.60;;;32.43;;
3875;SDS011;1953;51.222;6.624;2023-04-08T23:35:46;55.07;;;32.43;;
3875;SDS011;1953;51.222;6.624;2023-04-08T23:40:28;53.80;;;33.50;;
3875;SDS011;1953;51.222;6.624;2023-04-08T23:45:11;57.13;;;32.50;;
3875;SDS011;1953;51.222;6.624;2023-04-08T23:49:54;56.43;;;33.30;;
3875;SDS011;1953;51.222;6.624;2023-04-08T23:54:37;57.20;;;32.10;;
3875;SDS011;1953;51.222;6.624;2023-04-08T23:59:19;54.40;;;33.00;;
